createdAt,value
2023-01-05T00:02:29.031Z,6.02
2023-01-05T00:05:01.525Z,6.04
2023-01-05T00:07:33.855Z,6.04
2023-01-05T00:10:27.520Z,6.05
2023-01-05T00:13:18.661Z,6.04
2023-01-05T00:16:09.022Z,6.02
2023-01-05T00:18:59.337Z,6.01
2023-01-05T00:21:49.921Z,5.93
2023-01-05T00:24:22.227Z,6.01
2023-01-05T00:26:54.748Z,6.02
2023-01-05T00:29:27.798Z,6.01
2023-01-05T00:32:00.217Z,5.96
2023-01-05T00:34:32.853Z,6.01
2023-01-05T00:37:05.333Z,5.96
2023-01-05T00:39:37.656Z,5.86
2023-01-05T00:42:10.015Z,5.88
2023-01-05T00:44:42.999Z,5.84
2023-01-05T00:47:15.842Z,5.85
2023-01-05T00:49:48.255Z,5.80
2023-01-05T00:52:20.836Z,5.66
2023-01-05T00:54:54.339Z,5.61
2023-01-05T00:57:26.919Z,5.57
2023-01-05T01:00:02.199Z,5.59
2023-01-05T01:02:36.395Z,5.50
2023-01-05T01:05:09.123Z,5.46
2023-01-05T01:07:41.891Z,5.37
2023-01-05T01:10:14.420Z,5.48
2023-01-05T01:12:46.831Z,5.31
2023-01-05T01:15:20.032Z,5.19
2023-01-05T01:17:52.370Z,5.26
2023-01-05T01:20:24.844Z,5.30
2023-01-05T01:22:59.654Z,5.32
2023-01-05T01:25:31.919Z,5.14
2023-01-05T01:28:04.572Z,5.22
2023-01-05T01:30:38.609Z,5.18
2023-01-05T01:33:11.531Z,5.24
2023-01-05T01:35:44.063Z,5.20
2023-01-05T01:38:16.725Z,5.21
2023-01-05T01:40:49.844Z,5.09
2023-01-05T01:43:41.711Z,5.16
2023-01-05T01:46:16.417Z,5.09
2023-01-05T01:48:53.511Z,5.16
2023-01-05T01:51:30.024Z,5.18
2023-01-05T01:54:05.865Z,5.07
2023-01-05T01:56:43.588Z,5.10
2023-01-05T01:59:17.035Z,4.90
2023-01-05T02:01:54.653Z,4.91
2023-01-05T02:04:29.765Z,4.97
2023-01-05T02:07:03.495Z,4.92
2023-01-05T02:09:36.297Z,4.77
2023-01-05T02:12:22.443Z,4.85
2023-01-05T02:15:05.527Z,4.78
2023-01-05T02:17:46.416Z,4.75
2023-01-05T02:20:48.878Z,4.85
2023-01-05T02:23:50.876Z,4.89
2023-01-05T02:27:10.569Z,4.91
2023-01-05T02:30:03.756Z,4.90
2023-01-05T02:32:44.135Z,4.99
2023-01-05T02:35:25.307Z,5.08
2023-01-05T02:38:07.534Z,5.06
2023-01-05T02:40:43.841Z,5.10
2023-01-05T02:43:19.948Z,5.00
2023-01-05T02:45:52.361Z,5.17
2023-01-05T02:48:25.788Z,5.22
2023-01-05T02:51:03.996Z,5.27
2023-01-05T02:53:39.992Z,5.33
2023-01-05T02:56:17.872Z,5.31
2023-01-05T02:58:54.572Z,5.19
2023-01-05T03:01:30.858Z,5.21
2023-01-05T03:04:09.022Z,5.12
2023-01-05T03:06:47.178Z,4.86
2023-01-05T03:09:25.533Z,4.82
2023-01-05T03:12:23.411Z,4.76
2023-01-05T03:14:59.712Z,4.77
2023-01-05T03:17:39.176Z,4.66
2023-01-05T03:20:14.707Z,4.70
2023-01-05T03:23:08.345Z,4.38
2023-01-05T03:25:59.496Z,4.42
2023-01-05T03:28:58.654Z,4.47
2023-01-05T03:31:58.877Z,4.46
2023-01-05T03:35:00.301Z,4.41
2023-01-05T03:37:38.865Z,4.56
2023-01-05T03:40:16.039Z,4.64
2023-01-05T03:42:56.212Z,4.67
2023-01-05T03:45:34.989Z,4.74
2023-01-05T03:48:08.401Z,4.80
2023-01-05T03:50:40.742Z,4.81
2023-01-05T03:53:18.285Z,4.82
2023-01-05T03:55:51.634Z,4.86
2023-01-05T03:58:24.341Z,4.75
2023-01-05T04:00:57.484Z,4.51
2023-01-05T04:03:32.219Z,4.66
2023-01-05T04:06:07.998Z,4.68
2023-01-05T04:08:43.183Z,4.79
2023-01-05T04:11:17.935Z,4.75
2023-01-05T04:14:03.936Z,4.79
2023-01-05T04:16:36.905Z,4.83
2023-01-05T04:19:18.815Z,4.86
2023-01-05T04:21:51.418Z,4.76
2023-01-05T04:24:25.367Z,4.69
2023-01-05T04:26:57.859Z,4.86
2023-01-05T04:29:32.741Z,4.80
2023-01-05T04:32:06.231Z,4.84
2023-01-05T04:34:38.713Z,4.80
2023-01-05T04:37:11.344Z,4.76
2023-01-05T04:39:45.412Z,4.87
2023-01-05T04:42:18.721Z,4.82
2023-01-05T04:44:57.623Z,4.79
2023-01-05T04:47:29.919Z,4.92
2023-01-05T04:50:05.191Z,4.97
2023-01-05T04:52:37.759Z,5.15
2023-01-05T04:55:11.158Z,5.21
2023-01-05T04:57:44.542Z,5.24
2023-01-05T05:00:19.263Z,5.20
2023-01-05T05:02:54.799Z,5.27
2023-01-05T05:05:28.699Z,5.23
2023-01-05T05:08:02.960Z,5.30
2023-01-05T05:10:36.608Z,5.35
2023-01-05T05:13:09.092Z,5.36
2023-01-05T05:15:44.360Z,5.37
2023-01-05T05:18:17.613Z,5.43
2023-01-05T05:20:52.034Z,5.45
2023-01-05T05:23:26.363Z,5.28
2023-01-05T05:25:59.428Z,5.39
2023-01-05T05:28:31.894Z,5.39
2023-01-05T05:31:04.341Z,5.31
2023-01-05T05:33:37.643Z,5.24
2023-01-05T05:36:10.223Z,5.30
2023-01-05T05:38:42.620Z,5.42
2023-01-05T05:41:15.607Z,5.48
2023-01-05T05:43:47.973Z,5.54
2023-01-05T05:46:20.361Z,5.41
2023-01-05T05:48:52.768Z,5.51
2023-01-05T05:51:25.914Z,5.51
2023-01-05T05:53:58.306Z,5.42
2023-01-05T05:56:31.608Z,5.39
2023-01-05T05:59:04.060Z,5.42
2023-01-05T06:01:36.501Z,5.28
2023-01-05T06:04:09.099Z,5.27
2023-01-05T06:06:41.691Z,5.18
2023-01-05T06:09:14.250Z,5.35
2023-01-05T06:11:47.326Z,5.29
2023-01-05T06:14:20.010Z,5.08
2023-01-05T06:16:52.391Z,5.40
2023-01-05T06:19:24.764Z,5.49
2023-01-05T06:21:57.107Z,5.51
2023-01-05T06:24:29.494Z,5.48
2023-01-05T06:27:03.784Z,5.48
2023-01-05T06:29:36.159Z,5.53
2023-01-05T06:32:08.457Z,5.50
2023-01-05T06:34:40.901Z,5.42
2023-01-05T06:37:13.215Z,5.33
2023-01-05T06:39:45.626Z,5.40
2023-01-05T06:42:23.249Z,5.33
2023-01-05T06:44:56.023Z,5.44
2023-01-05T06:47:28.345Z,5.37
2023-01-05T06:50:00.909Z,5.49
2023-01-05T06:52:35.944Z,5.55
2023-01-05T06:55:09.982Z,5.51
2023-01-05T06:57:42.994Z,5.51
2023-01-05T07:00:16.089Z,5.46
2023-01-05T07:02:48.396Z,5.45
2023-01-05T07:05:22.506Z,5.51
2023-01-05T07:07:55.914Z,5.56
2023-01-05T07:10:28.667Z,5.49
2023-01-05T07:13:01.673Z,5.52
2023-01-05T07:15:34.026Z,5.48
2023-01-05T07:18:06.460Z,5.47
2023-01-05T07:20:38.925Z,5.59
2023-01-05T07:23:11.267Z,5.67
2023-01-05T07:25:43.677Z,5.70
2023-01-05T07:28:16.702Z,5.68
2023-01-05T07:30:52.463Z,5.68
2023-01-05T07:33:24.800Z,5.75
2023-01-05T07:36:01.480Z,5.79
2023-01-05T07:38:33.877Z,5.95
2023-01-05T07:41:06.326Z,6.02
2023-01-05T07:43:39.313Z,6.11
2023-01-05T07:46:11.716Z,6.02
2023-01-05T07:48:44.065Z,6.08
2023-01-05T07:51:17.417Z,6.10
2023-01-05T07:53:49.861Z,6.20
2023-01-05T07:56:22.590Z,6.21
2023-01-05T07:58:55.595Z,6.33
2023-01-05T08:01:28.114Z,6.43
2023-01-05T08:04:01.053Z,6.29
2023-01-05T08:06:34.005Z,6.47
2023-01-05T08:09:21.114Z,6.58
2023-01-05T08:11:53.509Z,6.46
2023-01-05T08:14:26.630Z,6.66
2023-01-05T08:16:59.122Z,6.62
2023-01-05T08:19:32.913Z,6.60
2023-01-05T08:22:05.473Z,6.57
2023-01-05T08:24:37.755Z,6.58
2023-01-05T08:27:10.268Z,6.49
2023-01-05T08:29:43.287Z,6.45
2023-01-05T08:32:15.742Z,6.61
2023-01-05T08:34:55.103Z,6.53
2023-01-05T08:37:27.588Z,6.50
2023-01-05T08:39:59.820Z,6.33
2023-01-05T08:42:32.700Z,6.55
2023-01-05T08:45:07.084Z,6.70
2023-01-05T08:47:39.471Z,6.66
2023-01-05T08:50:12.121Z,6.56
2023-01-05T08:52:44.514Z,6.79
2023-01-05T08:55:17.037Z,6.92
2023-01-05T08:57:49.551Z,7.00
2023-01-05T09:00:22.846Z,7.06
2023-01-05T09:02:55.351Z,7.20
2023-01-05T09:05:27.720Z,7.30
2023-01-05T09:08:00.108Z,7.38
2023-01-05T09:10:33.138Z,7.35
2023-01-05T09:13:05.506Z,7.38
2023-01-05T09:15:38.447Z,7.46
2023-01-05T09:18:10.844Z,7.54
2023-01-05T09:20:43.124Z,7.65
2023-01-05T09:23:15.677Z,7.81
2023-01-05T09:25:48.097Z,7.88
2023-01-05T09:28:20.552Z,8.03
2023-01-05T09:30:53.662Z,8.22
2023-01-05T09:33:26.102Z,8.37
2023-01-05T09:35:58.480Z,8.47
2023-01-05T09:38:30.928Z,8.56
2023-01-05T09:41:07.524Z,8.62
2023-01-05T09:43:42.800Z,8.97
2023-01-05T09:46:19.972Z,9.19
2023-01-05T09:48:55.027Z,9.34
2023-01-05T09:51:28.461Z,9.33
2023-01-05T09:54:01.935Z,9.50
2023-01-05T09:59:33.519Z,9.71
2023-01-05T10:02:16.888Z,9.82
2023-01-05T10:04:50.647Z,9.88
2023-01-05T10:07:31.883Z,9.72
2023-01-05T10:10:12.742Z,9.85
2023-01-05T10:13:06.133Z,9.74
2023-01-05T10:15:42.427Z,9.77
2023-01-05T10:18:18.591Z,9.91
2023-01-05T10:21:02.814Z,9.71
2023-01-05T10:23:50.432Z,9.75
2023-01-05T10:26:39.805Z,9.90
2023-01-05T10:29:26.482Z,9.78
2023-01-05T10:32:07.998Z,9.77
2023-01-05T10:34:54.355Z,10.01
2023-01-05T10:37:41.316Z,10.12
2023-01-05T10:40:27.403Z,10.20
2023-01-05T10:43:37.024Z,10.36
2023-01-05T10:46:43.755Z,10.56
2023-01-05T10:49:06.586Z,10.60
2023-01-05T10:51:39.749Z,10.71
2023-01-05T10:54:27.687Z,10.78
2023-01-05T10:57:38.664Z,10.64
2023-01-05T11:00:15.349Z,10.71
2023-01-05T11:02:50.791Z,10.87
2023-01-05T11:05:30.315Z,11.14
2023-01-05T11:08:05.499Z,11.21
2023-01-05T11:10:41.359Z,10.93
2023-01-05T11:13:22.279Z,11.01
2023-01-05T11:15:56.716Z,11.32
2023-01-05T11:18:34.528Z,11.73
2023-01-05T11:21:10.162Z,11.44
2023-01-05T11:23:45.193Z,11.58
2023-01-05T11:26:25.564Z,11.55
2023-01-05T11:29:08.851Z,11.62
2023-01-05T11:31:53.643Z,11.77
2023-01-05T11:34:41.538Z,11.90
2023-01-05T11:37:23.294Z,11.80
2023-01-05T11:39:58.328Z,11.91
2023-01-05T11:42:34.073Z,11.54
2023-01-05T11:45:17.287Z,11.47
2023-01-05T11:47:53.247Z,11.56
2023-01-05T11:50:28.086Z,11.81
2023-01-05T11:53:01.949Z,11.73
2023-01-05T11:55:37.180Z,12.13
2023-01-05T11:58:34.418Z,12.45
2023-01-05T12:01:36.516Z,12.46
2023-01-05T12:04:46.922Z,12.30
2023-01-05T12:07:32.809Z,12.31
2023-01-05T12:10:25.261Z,12.16
2023-01-05T12:13:06.305Z,11.90
2023-01-05T12:16:05.059Z,12.08
2023-01-05T12:19:02.715Z,11.83
2023-01-05T12:21:38.416Z,11.63
2023-01-05T12:24:45.231Z,11.36
2023-01-05T12:27:29.358Z,11.11
2023-01-05T12:36:51.642Z,10.87
2023-01-05T12:39:48.600Z,10.71
2023-01-05T12:42:46.732Z,10.83
2023-01-05T12:45:48.784Z,10.79
2023-01-05T12:48:25.050Z,10.72
2023-01-05T12:51:09.809Z,10.60
2023-01-05T12:53:49.918Z,10.55
2023-01-05T12:56:27.962Z,10.61
2023-01-05T12:59:12.544Z,10.57
2023-01-05T13:01:53.213Z,10.64
2023-01-05T13:04:44.594Z,10.48
2023-01-05T13:07:25.035Z,10.49
2023-01-05T13:10:03.234Z,10.57
2023-01-05T13:12:37.451Z,10.57
2023-01-05T13:15:18.142Z,10.73
2023-01-05T13:17:53.322Z,10.87
2023-01-05T13:20:39.810Z,10.98
2023-01-05T13:23:17.526Z,11.19
2023-01-05T13:25:56.057Z,11.33
2023-01-05T13:28:30.877Z,11.38
2023-01-05T13:31:39.867Z,11.18
2023-01-05T13:34:33.175Z,11.18
2023-01-05T13:37:33.256Z,11.16
2023-01-05T13:40:25.083Z,11.13
2023-01-05T13:43:15.907Z,11.10
2023-01-05T13:46:02.826Z,11.01
2023-01-05T13:49:05.621Z,10.97
2023-01-05T13:51:54.496Z,10.65
2023-01-05T13:54:59.847Z,10.43
2023-01-05T13:57:38.084Z,10.57
2023-01-05T14:00:23.698Z,10.56
2023-01-05T14:03:06.233Z,10.76
2023-01-05T14:05:48.199Z,10.73
2023-01-05T14:08:27.181Z,10.54
2023-01-05T14:11:15.339Z,10.38
2023-01-05T14:13:53.589Z,10.40
2023-01-05T14:16:55.116Z,10.37
2023-01-05T14:19:49.876Z,10.24
2023-01-05T14:22:32.667Z,10.48
2023-01-05T14:25:43.009Z,10.51
2023-01-05T14:28:21.782Z,10.38
2023-01-05T14:31:43.298Z,10.31
2023-01-05T14:34:21.433Z,10.43
2023-01-05T14:37:05.884Z,10.24
2023-01-05T14:39:42.448Z,10.32
2023-01-05T14:42:27.189Z,10.32
2023-01-05T14:45:03.311Z,10.36
2023-01-05T14:47:40.452Z,10.40
2023-01-05T14:50:28.409Z,10.41
2023-01-05T14:53:04.619Z,10.37
2023-01-05T14:55:40.118Z,10.39
2023-01-05T14:58:14.906Z,10.34
2023-01-05T15:00:57.629Z,10.29
2023-01-05T15:03:37.008Z,10.20
2023-01-05T15:06:15.366Z,10.07
2023-01-05T15:09:44.480Z,9.98
2023-01-05T15:12:58.339Z,9.87
2023-01-05T15:15:45.628Z,9.76
2023-01-05T15:18:44.776Z,9.66
2023-01-05T15:21:56.078Z,9.57
2023-01-05T15:25:06.596Z,9.46
2023-01-05T15:28:06.216Z,9.27
2023-01-05T15:30:45.694Z,9.29
2023-01-05T15:33:24.063Z,9.15
2023-01-05T15:36:02.094Z,8.96
2023-01-05T15:38:44.699Z,8.80
2023-01-05T15:41:19.909Z,8.73
2023-01-05T15:43:52.617Z,8.67
2023-01-05T15:46:30.926Z,8.53
2023-01-05T15:49:03.413Z,8.42
2023-01-05T15:51:37.155Z,8.33
2023-01-05T15:54:21.105Z,8.29
2023-01-05T15:56:54.831Z,8.24
2023-01-05T15:59:30.481Z,8.13
2023-01-05T16:02:16.492Z,8.08
2023-01-05T16:05:07.070Z,8.04
2023-01-05T16:07:54.716Z,8.03
2023-01-05T16:10:29.671Z,7.81
2023-01-05T16:13:10.058Z,7.69
2023-01-05T16:15:45.031Z,7.64
2023-01-05T16:18:21.380Z,7.50
2023-01-05T16:20:55.564Z,7.35
2023-01-05T16:23:33.879Z,7.31
2023-01-05T16:26:06.651Z,7.34
2023-01-05T16:28:40.504Z,6.98
2023-01-05T16:31:14.690Z,7.03
2023-01-05T16:34:00.361Z,6.88
2023-01-05T16:36:32.815Z,6.87
2023-01-05T16:39:22.818Z,6.81
2023-01-05T16:42:21.632Z,6.75
2023-01-05T16:44:55.270Z,6.57
2023-01-05T16:47:35.287Z,6.36
2023-01-05T16:50:59.623Z,6.36
2023-01-05T16:53:34.035Z,6.26
2023-01-05T16:56:18.928Z,6.18
2023-01-05T16:58:51.519Z,6.18
2023-01-05T17:01:26.654Z,5.94
2023-01-05T17:03:59.149Z,5.83
2023-01-05T17:06:31.937Z,5.77
2023-01-05T17:09:11.554Z,5.77
2023-01-05T17:11:44.588Z,5.80
2023-01-05T17:14:18.908Z,5.76
2023-01-05T17:16:51.497Z,5.67
2023-01-05T17:19:23.854Z,5.63
2023-01-05T17:22:03.681Z,5.53
2023-01-05T17:24:36.637Z,5.49
2023-01-05T17:27:10.276Z,5.30
2023-01-05T17:29:42.645Z,5.22
2023-01-05T17:32:15.266Z,5.23
2023-01-05T17:34:47.569Z,5.28
2023-01-05T17:37:19.950Z,5.25
2023-01-05T17:39:52.217Z,5.16
2023-01-05T17:42:43.713Z,5.07
2023-01-05T17:45:18.237Z,5.05
2023-01-05T17:47:50.999Z,5.13
2023-01-05T17:50:27.047Z,5.19
2023-01-05T17:53:01.458Z,5.20
2023-01-05T17:55:33.931Z,5.28
2023-01-05T17:58:07.020Z,5.45
2023-01-05T18:00:44.407Z,5.51
2023-01-05T18:03:21.108Z,5.60
2023-01-05T18:05:53.452Z,5.64
2023-01-05T18:08:25.881Z,5.61
2023-01-05T18:11:01.389Z,5.56
2023-01-05T18:13:34.848Z,5.53
2023-01-05T18:16:09.117Z,5.69
2023-01-05T18:18:41.870Z,5.73
2023-01-05T18:21:14.430Z,5.71
2023-01-05T18:23:46.828Z,5.73
2023-01-05T18:26:19.344Z,5.75
2023-01-05T18:28:53.576Z,5.67
2023-01-05T18:31:26.046Z,5.44
2023-01-05T18:33:58.994Z,5.48
2023-01-05T18:36:31.447Z,5.44
2023-01-05T18:39:04.034Z,5.46
2023-01-05T18:41:36.399Z,5.41
2023-01-05T18:44:09.627Z,5.41
2023-01-05T18:46:41.969Z,5.39
2023-01-05T18:49:14.669Z,5.40
2023-01-05T18:51:50.250Z,5.34
2023-01-05T18:54:22.977Z,5.18
2023-01-05T18:56:55.288Z,5.24
2023-01-05T18:59:28.446Z,5.30
2023-01-05T19:02:00.972Z,4.78
2023-01-05T19:04:33.484Z,4.90
2023-01-05T19:07:05.903Z,5.05
2023-01-05T19:09:38.350Z,5.18
2023-01-05T19:12:10.773Z,5.29
2023-01-05T19:14:43.907Z,5.34
2023-01-05T19:17:16.227Z,5.32
2023-01-05T19:19:48.909Z,5.01
2023-01-05T19:22:21.277Z,4.99
2023-01-05T19:24:53.705Z,5.10
2023-01-05T19:27:27.365Z,5.04
2023-01-05T19:30:00.465Z,5.00
2023-01-05T19:32:35.999Z,4.94
2023-01-05T19:35:08.739Z,4.97
2023-01-05T19:37:42.025Z,4.87
2023-01-05T19:40:14.508Z,4.87
2023-01-05T19:42:47.068Z,4.88
2023-01-05T19:45:20.376Z,4.57
2023-01-05T19:47:52.675Z,4.64
2023-01-05T19:50:25.261Z,4.68
2023-01-05T19:52:57.916Z,4.67
2023-01-05T19:55:30.277Z,4.63
2023-01-05T19:58:02.633Z,4.56
2023-01-05T20:00:35.753Z,4.53
2023-01-05T20:03:08.087Z,4.56
2023-01-05T20:05:40.792Z,4.57
2023-01-05T20:08:13.182Z,4.51
2023-01-05T20:10:45.569Z,4.38
2023-01-05T20:13:17.911Z,4.32
2023-01-05T20:15:50.978Z,4.26
2023-01-05T20:18:23.440Z,3.94
2023-01-05T20:20:58.375Z,3.93
2023-01-05T20:23:36.368Z,3.97
2023-01-05T20:26:12.687Z,3.90
2023-01-05T20:28:46.184Z,3.84
2023-01-05T20:31:23.354Z,3.88
2023-01-05T20:33:58.503Z,3.61
2023-01-05T20:36:32.494Z,3.76
2023-01-05T20:39:06.509Z,3.87
2023-01-05T20:41:40.767Z,3.85
2023-01-05T20:44:14.481Z,3.86
2023-01-05T20:46:49.546Z,3.87
2023-01-05T20:49:22.785Z,3.81
2023-01-05T20:51:55.197Z,3.74
2023-01-05T20:54:27.823Z,3.59
2023-01-05T20:57:00.286Z,3.61
2023-01-05T20:59:34.638Z,3.64
2023-01-05T21:02:22.032Z,3.44
2023-01-05T21:04:55.609Z,3.51
2023-01-05T21:07:27.961Z,3.45
2023-01-05T21:10:01.028Z,3.12
2023-01-05T21:12:33.449Z,3.12
2023-01-05T21:15:07.275Z,2.81
2023-01-05T21:17:40.292Z,3.01
2023-01-05T21:20:12.727Z,3.18
2023-01-05T21:22:45.028Z,3.25
2023-01-05T21:25:17.610Z,3.33
2023-01-05T21:27:49.949Z,3.38
2023-01-05T21:30:22.536Z,3.44
2023-01-05T21:32:55.530Z,3.41
2023-01-05T21:35:27.969Z,3.42
2023-01-05T21:38:00.342Z,3.25
2023-01-05T21:40:33.204Z,3.22
2023-01-05T21:43:05.597Z,3.27
2023-01-05T21:45:40.077Z,3.27
2023-01-05T21:48:13.071Z,3.10
2023-01-05T21:51:03.801Z,2.87
2023-01-05T21:54:02.710Z,2.82
2023-01-05T21:56:38.866Z,2.79
2023-01-05T21:59:11.203Z,2.85
2023-01-05T22:01:43.544Z,2.85
2023-01-05T22:04:16.567Z,2.86
2023-01-05T22:06:49.672Z,2.85
2023-01-05T22:09:22.026Z,2.80
2023-01-05T22:11:54.421Z,2.77
2023-01-05T22:14:26.761Z,2.81
2023-01-05T22:16:59.451Z,2.80
2023-01-05T22:19:32.644Z,2.73
2023-01-05T22:22:05.259Z,2.56
2023-01-05T22:24:38.027Z,2.75
2023-01-05T22:27:10.500Z,2.45
2023-01-05T22:29:42.858Z,2.52
2023-01-05T22:32:15.403Z,2.58
2023-01-05T22:34:48.387Z,2.62
2023-01-05T22:37:20.785Z,2.59
2023-01-05T22:39:53.122Z,2.43
2023-01-05T22:42:25.549Z,2.44
2023-01-05T22:44:57.876Z,2.52
2023-01-05T22:47:30.286Z,2.50
2023-01-05T22:50:03.732Z,2.44
2023-01-05T22:52:36.114Z,2.52
2023-01-05T22:55:09.057Z,2.45
2023-01-05T22:57:41.423Z,2.41
2023-01-05T23:00:14.326Z,2.25
2023-01-05T23:02:46.724Z,2.20
2023-01-05T23:05:19.755Z,2.17
2023-01-05T23:07:52.144Z,2.15
2023-01-05T23:10:26.924Z,2.10
2023-01-05T23:12:59.333Z,2.05
2023-01-05T23:15:31.674Z,1.94
2023-01-05T23:18:04.221Z,1.97
2023-01-05T23:20:37.297Z,2.10
2023-01-05T23:23:09.998Z,2.14
2023-01-05T23:25:44.529Z,2.19
2023-01-05T23:28:17.692Z,2.14
2023-01-05T23:30:52.116Z,2.10
2023-01-05T23:33:31.216Z,2.21
2023-01-05T23:36:05.402Z,2.26
2023-01-05T23:38:38.032Z,2.35
2023-01-05T23:41:11.893Z,2.42
2023-01-05T23:43:45.293Z,2.45
2023-01-05T23:46:19.607Z,2.45
2023-01-05T23:48:52.314Z,1.95
2023-01-05T23:51:25.389Z,2.05
2023-01-05T23:53:57.955Z,2.20
2023-01-05T23:56:30.697Z,2.35
2023-01-05T23:59:05.719Z,2.26
